sensor_id;sensor_type;location;lat;lon;timestamp;P1;durP1;ratioP1;P2;durP2;ratioP2
41799;SDS011;27468;47.460;19.034;2023-09-19T00:01:07;1.55;;;1.20;;
41799;SDS011;27468;47.460;19.034;2023-09-19T00:03:34;1.52;;;1.20;;
41799;SDS011;27468;47.460;19.034;2023-09-19T00:06:02;2.60;;;1.02;;
41799;SDS011;27468;47.460;19.034;2023-09-19T00:08:28;1.77;;;1.50;;
41799;SDS011;27468;47.460;19.034;2023-09-19T00:10:54;2.15;;;1.95;;
41799;SDS011;27468;47.460;19.034;2023-09-19T00:13:19;1.42;;;1.33;;
41799;SDS011;27468;47.460;19.034;2023-09-19T00:15:46;2.65;;;1.05;;
41799;SDS011;27468;47.460;19.034;2023-09-19T00:18:15;1.77;;;1.45;;
41799;SDS011;27468;47.460;19.034;2023-09-19T00:20:43;2.20;;;1.02;;
41799;SDS011;27468;47.460;19.034;2023-09-19T00:23:16;1.02;;;0.85;;
41799;SDS011;27468;47.460;19.034;2023-09-19T00:25:42;1.15;;;1.05;;
41799;SDS011;27468;47.460;19.034;2023-09-19T00:28:07;1.75;;;1.27;;
41799;SDS011;27468;47.460;19.034;2023-09-19T00:30:36;0.80;;;0.80;;
41799;SDS011;27468;47.460;19.034;2023-09-19T00:33:03;1.75;;;1.33;;
41799;SDS011;27468;47.460;19.034;2023-09-19T00:35:32;1.55;;;1.45;;
41799;SDS011;27468;47.460;19.034;2023-09-19T00:37:58;1.40;;;1.23;;
41799;SDS011;27468;47.460;19.034;2023-09-19T00:40:23;1.67;;;1.58;;
41799;SDS011;27468;47.460;19.034;2023-09-19T00:42:49;3.10;;;1.63;;
41799;SDS011;27468;47.460;19.034;2023-09-19T00:45:16;1.42;;;1.33;;
41799;SDS011;27468;47.460;19.034;2023-09-19T00:47:49;1.73;;;1.50;;
41799;SDS011;27468;47.460;19.034;2023-09-19T00:50:16;1.15;;;1.05;;
41799;SDS011;27468;47.460;19.034;2023-09-19T00:52:44;1.95;;;1.30;;
41799;SDS011;27468;47.460;19.034;2023-09-19T00:55:15;1.42;;;1.13;;
41799;SDS011;27468;47.460;19.034;2023-09-19T00:57:44;2.67;;;2.05;;
41799;SDS011;27468;47.460;19.034;2023-09-19T01:00:10;1.58;;;1.38;;
41799;SDS011;27468;47.460;19.034;2023-09-19T01:02:43;1.33;;;1.05;;
41799;SDS011;27468;47.460;19.034;2023-09-19T01:05:09;2.72;;;1.70;;
41799;SDS011;27468;47.460;19.034;2023-09-19T01:07:35;2.33;;;1.65;;
41799;SDS011;27468;47.460;19.034;2023-09-19T01:10:04;2.33;;;1.73;;
41799;SDS011;27468;47.460;19.034;2023-09-19T01:12:42;1.70;;;1.35;;
41799;SDS011;27468;47.460;19.034;2023-09-19T01:21:00;1.17;;;0.70;;
41799;SDS011;27468;47.460;19.034;2023-09-19T01:23:39;1.88;;;1.23;;
41799;SDS011;27468;47.460;19.034;2023-09-19T01:26:17;2.05;;;1.52;;
41799;SDS011;27468;47.460;19.034;2023-09-19T01:31:22;3.08;;;2.70;;
41799;SDS011;27468;47.460;19.034;2023-09-19T01:34:02;1.65;;;1.55;;
41799;SDS011;27468;47.460;19.034;2023-09-19T01:36:33;2.88;;;1.60;;
41799;SDS011;27468;47.460;19.034;2023-09-19T01:39:01;3.55;;;1.58;;
41799;SDS011;27468;47.460;19.034;2023-09-19T01:49:52;1.88;;;1.77;;
41799;SDS011;27468;47.460;19.034;2023-09-19T01:52:26;2.05;;;1.42;;
41799;SDS011;27468;47.460;19.034;2023-09-19T01:54:59;1.48;;;1.02;;
41799;SDS011;27468;47.460;19.034;2023-09-19T01:57:35;1.85;;;1.45;;
41799;SDS011;27468;47.460;19.034;2023-09-19T02:00:14;1.80;;;1.45;;
41799;SDS011;27468;47.460;19.034;2023-09-19T02:02:46;1.85;;;1.55;;
41799;SDS011;27468;47.460;19.034;2023-09-19T02:05:12;2.47;;;1.58;;
41799;SDS011;27468;47.460;19.034;2023-09-19T02:07:38;2.97;;;2.05;;
41799;SDS011;27468;47.460;19.034;2023-09-19T02:10:05;2.97;;;1.90;;
41799;SDS011;27468;47.460;19.034;2023-09-19T02:12:32;1.75;;;1.65;;
41799;SDS011;27468;47.460;19.034;2023-09-19T02:14:58;1.50;;;1.00;;
41799;SDS011;27468;47.460;19.034;2023-09-19T02:17:24;1.75;;;1.33;;
41799;SDS011;27468;47.460;19.034;2023-09-19T02:19:56;1.83;;;1.65;;
41799;SDS011;27468;47.460;19.034;2023-09-19T02:22:24;2.53;;;1.73;;
41799;SDS011;27468;47.460;19.034;2023-09-19T02:24:50;2.67;;;1.75;;
41799;SDS011;27468;47.460;19.034;2023-09-19T02:27:16;1.52;;;1.38;;
41799;SDS011;27468;47.460;19.034;2023-09-19T02:29:44;1.80;;;1.00;;
41799;SDS011;27468;47.460;19.034;2023-09-19T02:32:10;5.25;;;1.90;;
41799;SDS011;27468;47.460;19.034;2023-09-19T02:34:36;1.00;;;0.90;;
41799;SDS011;27468;47.460;19.034;2023-09-19T02:37:05;4.03;;;2.20;;
41799;SDS011;27468;47.460;19.034;2023-09-19T02:39:31;2.00;;;1.38;;
41799;SDS011;27468;47.460;19.034;2023-09-19T02:41:57;2.17;;;1.27;;
41799;SDS011;27468;47.460;19.034;2023-09-19T02:44:22;1.50;;;1.40;;
41799;SDS011;27468;47.460;19.034;2023-09-19T02:46:49;2.47;;;1.73;;
41799;SDS011;27468;47.460;19.034;2023-09-19T02:49:14;2.85;;;1.50;;
41799;SDS011;27468;47.460;19.034;2023-09-19T02:51:40;1.60;;;1.50;;
41799;SDS011;27468;47.460;19.034;2023-09-19T02:54:05;4.57;;;2.22;;
41799;SDS011;27468;47.460;19.034;2023-09-19T02:56:31;2.17;;;1.52;;
41799;SDS011;27468;47.460;19.034;2023-09-19T02:58:57;3.13;;;1.85;;
41799;SDS011;27468;47.460;19.034;2023-09-19T03:01:23;2.25;;;1.55;;
41799;SDS011;27468;47.460;19.034;2023-09-19T03:03:48;2.40;;;1.48;;
41799;SDS011;27468;47.460;19.034;2023-09-19T03:06:14;1.75;;;1.63;;
41799;SDS011;27468;47.460;19.034;2023-09-19T03:08:45;2.33;;;1.75;;
41799;SDS011;27468;47.460;19.034;2023-09-19T03:11:11;1.70;;;1.45;;
41799;SDS011;27468;47.460;19.034;2023-09-19T03:13:40;1.45;;;1.25;;
41799;SDS011;27468;47.460;19.034;2023-09-19T03:16:06;3.10;;;1.95;;
41799;SDS011;27468;47.460;19.034;2023-09-19T03:18:35;3.65;;;2.20;;
41799;SDS011;27468;47.460;19.034;2023-09-19T03:21:01;2.45;;;2.08;;
41799;SDS011;27468;47.460;19.034;2023-09-19T03:23:26;1.45;;;1.35;;
41799;SDS011;27468;47.460;19.034;2023-09-19T03:25:53;2.08;;;1.85;;
41799;SDS011;27468;47.460;19.034;2023-09-19T03:28:19;1.30;;;1.15;;
41799;SDS011;27468;47.460;19.034;2023-09-19T03:31:00;6.03;;;2.20;;
41799;SDS011;27468;47.460;19.034;2023-09-19T03:33:27;1.65;;;1.55;;
41799;SDS011;27468;47.460;19.034;2023-09-19T03:35:53;2.40;;;1.25;;
41799;SDS011;27468;47.460;19.034;2023-09-19T03:38:19;2.17;;;1.83;;
41799;SDS011;27468;47.460;19.034;2023-09-19T03:40:44;1.77;;;1.67;;
41799;SDS011;27468;47.460;19.034;2023-09-19T03:43:11;2.50;;;1.52;;
41799;SDS011;27468;47.460;19.034;2023-09-19T03:45:37;1.85;;;1.30;;
41799;SDS011;27468;47.460;19.034;2023-09-19T03:48:07;1.95;;;1.50;;
41799;SDS011;27468;47.460;19.034;2023-09-19T03:50:36;1.42;;;1.20;;
41799;SDS011;27468;47.460;19.034;2023-09-19T03:53:02;2.42;;;2.00;;
41799;SDS011;27468;47.460;19.034;2023-09-19T03:55:28;2.22;;;1.85;;
41799;SDS011;27468;47.460;19.034;2023-09-19T03:57:55;2.97;;;1.98;;
41799;SDS011;27468;47.460;19.034;2023-09-19T04:00:21;2.30;;;1.95;;
41799;SDS011;27468;47.460;19.034;2023-09-19T04:02:48;1.60;;;1.35;;
41799;SDS011;27468;47.460;19.034;2023-09-19T04:05:14;2.33;;;1.77;;
41799;SDS011;27468;47.460;19.034;2023-09-19T04:07:39;4.72;;;2.53;;
41799;SDS011;27468;47.460;19.034;2023-09-19T04:10:05;1.33;;;1.23;;
41799;SDS011;27468;47.460;19.034;2023-09-19T04:12:33;1.95;;;1.63;;
41799;SDS011;27468;47.460;19.034;2023-09-19T04:14:59;2.03;;;1.90;;
41799;SDS011;27468;47.460;19.034;2023-09-19T04:17:24;1.38;;;1.27;;
41799;SDS011;27468;47.460;19.034;2023-09-19T04:19:50;2.10;;;1.85;;
41799;SDS011;27468;47.460;19.034;2023-09-19T04:22:15;3.08;;;1.92;;
41799;SDS011;27468;47.460;19.034;2023-09-19T04:24:40;2.63;;;1.38;;
41799;SDS011;27468;47.460;19.034;2023-09-19T04:27:06;2.15;;;1.42;;
41799;SDS011;27468;47.460;19.034;2023-09-19T04:29:32;2.08;;;1.85;;
41799;SDS011;27468;47.460;19.034;2023-09-19T04:31:57;2.28;;;2.08;;
41799;SDS011;27468;47.460;19.034;2023-09-19T04:34:23;4.60;;;1.63;;
41799;SDS011;27468;47.460;19.034;2023-09-19T04:36:49;1.50;;;1.08;;
41799;SDS011;27468;47.460;19.034;2023-09-19T04:39:15;2.38;;;2.17;;
41799;SDS011;27468;47.460;19.034;2023-09-19T04:41:41;1.70;;;1.52;;
41799;SDS011;27468;47.460;19.034;2023-09-19T04:44:07;2.88;;;1.63;;
41799;SDS011;27468;47.460;19.034;2023-09-19T04:46:33;2.95;;;1.75;;
41799;SDS011;27468;47.460;19.034;2023-09-19T04:48:59;1.73;;;1.63;;
41799;SDS011;27468;47.460;19.034;2023-09-19T04:51:24;1.67;;;1.58;;
41799;SDS011;27468;47.460;19.034;2023-09-19T04:53:51;2.25;;;1.42;;
41799;SDS011;27468;47.460;19.034;2023-09-19T04:56:17;1.27;;;1.17;;
41799;SDS011;27468;47.460;19.034;2023-09-19T04:58:42;0.70;;;0.70;;
41799;SDS011;27468;47.460;19.034;2023-09-19T05:01:08;2.03;;;1.13;;
41799;SDS011;27468;47.460;19.034;2023-09-19T05:03:36;0.10;;;0.10;;
41799;SDS011;27468;47.460;19.034;2023-09-19T05:06:02;0.40;;;0.40;;
41799;SDS011;27468;47.460;19.034;2023-09-19T05:08:29;0.20;;;0.20;;
41799;SDS011;27468;47.460;19.034;2023-09-19T05:10:54;0.10;;;0.10;;
41799;SDS011;27468;47.460;19.034;2023-09-19T05:13:21;0.28;;;0.28;;
41799;SDS011;27468;47.460;19.034;2023-09-19T05:15:48;0.20;;;0.20;;
41799;SDS011;27468;47.460;19.034;2023-09-19T05:18:15;0.55;;;0.47;;
41799;SDS011;27468;47.460;19.034;2023-09-19T05:20:40;0.05;;;0.05;;
41799;SDS011;27468;47.460;19.034;2023-09-19T05:23:07;0.30;;;0.30;;
41799;SDS011;27468;47.460;19.034;2023-09-19T05:25:37;0.10;;;0.10;;
41799;SDS011;27468;47.460;19.034;2023-09-19T05:28:04;0.10;;;0.10;;
41799;SDS011;27468;47.460;19.034;2023-09-19T05:30:34;0.03;;;0.03;;
41799;SDS011;27468;47.460;19.034;2023-09-19T05:33:08;0.20;;;0.20;;
41799;SDS011;27468;47.460;19.034;2023-09-19T05:35:34;0.10;;;0.10;;
41799;SDS011;27468;47.460;19.034;2023-09-19T05:38:04;0.20;;;0.20;;
41799;SDS011;27468;47.460;19.034;2023-09-19T05:40:33;0.47;;;0.45;;
41799;SDS011;27468;47.460;19.034;2023-09-19T05:43:00;0.10;;;0.10;;
41799;SDS011;27468;47.460;19.034;2023-09-19T05:45:25;1.25;;;0.50;;
41799;SDS011;27468;47.460;19.034;2023-09-19T05:47:52;0.43;;;0.20;;
41799;SDS011;27468;47.460;19.034;2023-09-19T05:50:26;0.00;;;0.00;;
41799;SDS011;27468;47.460;19.034;2023-09-19T05:52:52;0.20;;;0.20;;
41799;SDS011;27468;47.460;19.034;2023-09-19T05:55:18;0.25;;;0.25;;
41799;SDS011;27468;47.460;19.034;2023-09-19T05:57:43;0.10;;;0.10;;
41799;SDS011;27468;47.460;19.034;2023-09-19T06:00:15;0.10;;;0.10;;
41799;SDS011;27468;47.460;19.034;2023-09-19T06:02:42;0.20;;;0.00;;
41799;SDS011;27468;47.460;19.034;2023-09-19T06:05:09;0.00;;;0.00;;
41799;SDS011;27468;47.460;19.034;2023-09-19T06:07:36;0.85;;;0.30;;
41799;SDS011;27468;47.460;19.034;2023-09-19T06:10:05;0.28;;;0.28;;
41799;SDS011;27468;47.460;19.034;2023-09-19T06:12:38;0.55;;;0.03;;
41799;SDS011;27468;47.460;19.034;2023-09-19T06:15:04;0.22;;;0.15;;
41799;SDS011;27468;47.460;19.034;2023-09-19T06:17:31;0.00;;;0.00;;
41799;SDS011;27468;47.460;19.034;2023-09-19T06:19:56;0.35;;;0.20;;
41799;SDS011;27468;47.460;19.034;2023-09-19T06:22:22;0.25;;;0.10;;
41799;SDS011;27468;47.460;19.034;2023-09-19T06:24:49;0.15;;;0.15;;
41799;SDS011;27468;47.460;19.034;2023-09-19T06:27:15;1.33;;;0.10;;
41799;SDS011;27468;47.460;19.034;2023-09-19T06:29:40;0.32;;;0.28;;
41799;SDS011;27468;47.460;19.034;2023-09-19T06:32:07;0.10;;;0.10;;
41799;SDS011;27468;47.460;19.034;2023-09-19T06:34:33;0.22;;;0.20;;
41799;SDS011;27468;47.460;19.034;2023-09-19T06:36:59;0.57;;;0.10;;
41799;SDS011;27468;47.460;19.034;2023-09-19T06:39:25;0.00;;;0.00;;
41799;SDS011;27468;47.460;19.034;2023-09-19T06:41:51;0.30;;;0.30;;
41799;SDS011;27468;47.460;19.034;2023-09-19T06:44:18;0.28;;;0.28;;
41799;SDS011;27468;47.460;19.034;2023-09-19T06:46:47;0.03;;;0.03;;
41799;SDS011;27468;47.460;19.034;2023-09-19T06:49:16;0.55;;;0.55;;
41799;SDS011;27468;47.460;19.034;2023-09-19T06:51:41;0.15;;;0.10;;
41799;SDS011;27468;47.460;19.034;2023-09-19T06:54:08;0.03;;;0.03;;
41799;SDS011;27468;47.460;19.034;2023-09-19T06:56:33;0.10;;;0.10;;
41799;SDS011;27468;47.460;19.034;2023-09-19T06:58:59;0.00;;;0.00;;
41799;SDS011;27468;47.460;19.034;2023-09-19T07:01:24;0.10;;;0.10;;
41799;SDS011;27468;47.460;19.034;2023-09-19T07:03:50;0.20;;;0.20;;
41799;SDS011;27468;47.460;19.034;2023-09-19T07:06:16;0.10;;;0.10;;
41799;SDS011;27468;47.460;19.034;2023-09-19T07:08:41;0.10;;;0.10;;
41799;SDS011;27468;47.460;19.034;2023-09-19T07:11:07;0.00;;;0.00;;
41799;SDS011;27468;47.460;19.034;2023-09-19T07:13:32;0.10;;;0.10;;
41799;SDS011;27468;47.460;19.034;2023-09-19T07:16:00;0.00;;;0.00;;
41799;SDS011;27468;47.460;19.034;2023-09-19T07:18:26;0.57;;;0.20;;
41799;SDS011;27468;47.460;19.034;2023-09-19T07:20:56;0.52;;;0.52;;
41799;SDS011;27468;47.460;19.034;2023-09-19T07:23:26;0.03;;;0.03;;
41799;SDS011;27468;47.460;19.034;2023-09-19T07:25:51;0.55;;;0.03;;
41799;SDS011;27468;47.460;19.034;2023-09-19T07:28:17;0.00;;;0.00;;
41799;SDS011;27468;47.460;19.034;2023-09-19T07:30:42;0.00;;;0.00;;
41799;SDS011;27468;47.460;19.034;2023-09-19T07:33:08;0.00;;;0.00;;
41799;SDS011;27468;47.460;19.034;2023-09-19T07:35:36;0.10;;;0.10;;
41799;SDS011;27468;47.460;19.034;2023-09-19T07:38:04;0.20;;;0.20;;
41799;SDS011;27468;47.460;19.034;2023-09-19T07:40:30;0.05;;;0.05;;
41799;SDS011;27468;47.460;19.034;2023-09-19T07:42:55;0.00;;;0.00;;
41799;SDS011;27468;47.460;19.034;2023-09-19T07:45:21;0.10;;;0.10;;
41799;SDS011;27468;47.460;19.034;2023-09-19T07:47:47;0.05;;;0.05;;
41799;SDS011;27468;47.460;19.034;2023-09-19T07:50:17;0.60;;;0.20;;
41799;SDS011;27468;47.460;19.034;2023-09-19T07:52:44;0.20;;;0.17;;
41799;SDS011;27468;47.460;19.034;2023-09-19T07:55:10;0.00;;;0.00;;
41799;SDS011;27468;47.460;19.034;2023-09-19T07:57:36;0.65;;;0.30;;
41799;SDS011;27468;47.460;19.034;2023-09-19T08:00:02;0.05;;;0.05;;
41799;SDS011;27468;47.460;19.034;2023-09-19T08:02:35;0.10;;;0.10;;
41799;SDS011;27468;47.460;19.034;2023-09-19T08:05:03;0.38;;;0.28;;
41799;SDS011;27468;47.460;19.034;2023-09-19T08:07:35;0.10;;;0.10;;
41799;SDS011;27468;47.460;19.034;2023-09-19T08:10:02;0.20;;;0.20;;
41799;SDS011;27468;47.460;19.034;2023-09-19T08:12:28;0.10;;;0.10;;
41799;SDS011;27468;47.460;19.034;2023-09-19T08:14:55;0.20;;;0.20;;
41799;SDS011;27468;47.460;19.034;2023-09-19T08:17:21;0.10;;;0.10;;
41799;SDS011;27468;47.460;19.034;2023-09-19T08:19:48;1.88;;;1.30;;
41799;SDS011;27468;47.460;19.034;2023-09-19T08:22:14;0.20;;;0.20;;
41799;SDS011;27468;47.460;19.034;2023-09-19T08:24:42;0.60;;;0.30;;
41799;SDS011;27468;47.460;19.034;2023-09-19T08:27:08;0.60;;;0.22;;
41799;SDS011;27468;47.460;19.034;2023-09-19T08:29:35;0.20;;;0.20;;
41799;SDS011;27468;47.460;19.034;2023-09-19T08:32:00;0.10;;;0.10;;
41799;SDS011;27468;47.460;19.034;2023-09-19T08:34:26;0.38;;;0.17;;
41799;SDS011;27468;47.460;19.034;2023-09-19T08:36:52;0.20;;;0.20;;
41799;SDS011;27468;47.460;19.034;2023-09-19T08:39:21;0.00;;;0.00;;
41799;SDS011;27468;47.460;19.034;2023-09-19T08:41:47;0.05;;;0.05;;
41799;SDS011;27468;47.460;19.034;2023-09-19T08:44:12;0.00;;;0.00;;
41799;SDS011;27468;47.460;19.034;2023-09-19T08:46:39;0.22;;;0.22;;
41799;SDS011;27468;47.460;19.034;2023-09-19T08:49:16;0.50;;;0.40;;
41799;SDS011;27468;47.460;19.034;2023-09-19T08:51:53;0.40;;;0.40;;
41799;SDS011;27468;47.460;19.034;2023-09-19T08:54:32;0.38;;;0.38;;
41799;SDS011;27468;47.460;19.034;2023-09-19T08:57:05;0.20;;;0.20;;
41799;SDS011;27468;47.460;19.034;2023-09-19T08:59:37;0.60;;;0.47;;
41799;SDS011;27468;47.460;19.034;2023-09-19T09:02:08;0.35;;;0.10;;
41799;SDS011;27468;47.460;19.034;2023-09-19T09:04:38;0.35;;;0.35;;
41799;SDS011;27468;47.460;19.034;2023-09-19T09:07:09;0.30;;;0.30;;
41799;SDS011;27468;47.460;19.034;2023-09-19T09:09:36;0.40;;;0.40;;
41799;SDS011;27468;47.460;19.034;2023-09-19T09:12:02;0.95;;;0.75;;
41799;SDS011;27468;47.460;19.034;2023-09-19T09:14:29;0.40;;;0.40;;
41799;SDS011;27468;47.460;19.034;2023-09-19T09:16:55;0.40;;;0.40;;
41799;SDS011;27468;47.460;19.034;2023-09-19T09:19:24;0.17;;;0.17;;
41799;SDS011;27468;47.460;19.034;2023-09-19T09:21:50;0.45;;;0.30;;
41799;SDS011;27468;47.460;19.034;2023-09-19T09:24:26;0.82;;;0.60;;
41799;SDS011;27468;47.460;19.034;2023-09-19T09:26:55;0.55;;;0.10;;
41799;SDS011;27468;47.460;19.034;2023-09-19T09:29:44;0.80;;;0.50;;
41799;SDS011;27468;47.460;19.034;2023-09-19T09:32:28;0.43;;;0.43;;
41799;SDS011;27468;47.460;19.034;2023-09-19T09:34:59;0.22;;;0.22;;
41799;SDS011;27468;47.460;19.034;2023-09-19T09:37:25;0.17;;;0.17;;
41799;SDS011;27468;47.460;19.034;2023-09-19T09:40:02;1.23;;;0.95;;
41799;SDS011;27468;47.460;19.034;2023-09-19T09:42:39;1.48;;;0.17;;
41799;SDS011;27468;47.460;19.034;2023-09-19T09:48:02;0.10;;;0.10;;
41799;SDS011;27468;47.460;19.034;2023-09-19T09:50:35;0.20;;;0.20;;
41799;SDS011;27468;47.460;19.034;2023-09-19T09:53:03;0.90;;;0.50;;
41799;SDS011;27468;47.460;19.034;2023-09-19T09:59:07;0.25;;;0.20;;
41799;SDS011;27468;47.460;19.034;2023-09-19T10:01:28;0.20;;;0.20;;
41799;SDS011;27468;47.460;19.034;2023-09-19T10:04:11;0.45;;;0.20;;
41799;SDS011;27468;47.460;19.034;2023-09-19T10:07:09;0.03;;;0.03;;
41799;SDS011;27468;47.460;19.034;2023-09-19T10:09:45;0.50;;;0.50;;
41799;SDS011;27468;47.460;19.034;2023-09-19T10:12:12;0.73;;;0.50;;
41799;SDS011;27468;47.460;19.034;2023-09-19T10:14:41;0.43;;;0.35;;
41799;SDS011;27468;47.460;19.034;2023-09-19T10:17:12;0.50;;;0.50;;
41799;SDS011;27468;47.460;19.034;2023-09-19T10:19:54;0.30;;;0.20;;
41799;SDS011;27468;47.460;19.034;2023-09-19T10:22:24;0.80;;;0.68;;
41799;SDS011;27468;47.460;19.034;2023-09-19T10:24:53;0.50;;;0.45;;
41799;SDS011;27468;47.460;19.034;2023-09-19T10:27:19;0.63;;;0.50;;
41799;SDS011;27468;47.460;19.034;2023-09-19T10:29:45;1.58;;;0.73;;
41799;SDS011;27468;47.460;19.034;2023-09-19T10:32:15;1.10;;;0.50;;
41799;SDS011;27468;47.460;19.034;2023-09-19T10:34:46;0.88;;;0.85;;
41799;SDS011;27468;47.460;19.034;2023-09-19T10:37:13;0.30;;;0.30;;
41799;SDS011;27468;47.460;19.034;2023-09-19T10:39:40;1.42;;;0.50;;
41799;SDS011;27468;47.460;19.034;2023-09-19T10:42:10;0.63;;;0.55;;
41799;SDS011;27468;47.460;19.034;2023-09-19T10:47:09;0.38;;;0.38;;
41799;SDS011;27468;47.460;19.034;2023-09-19T10:49:34;0.98;;;0.68;;
41799;SDS011;27468;47.460;19.034;2023-09-19T10:52:00;0.25;;;0.25;;
41799;SDS011;27468;47.460;19.034;2023-09-19T10:54:28;1.35;;;0.60;;
41799;SDS011;27468;47.460;19.034;2023-09-19T10:56:59;0.30;;;0.30;;
41799;SDS011;27468;47.460;19.034;2023-09-19T10:59:25;0.45;;;0.32;;
41799;SDS011;27468;47.460;19.034;2023-09-19T11:01:59;0.60;;;0.52;;
41799;SDS011;27468;47.460;19.034;2023-09-19T11:04:40;0.65;;;0.32;;
41799;SDS011;27468;47.460;19.034;2023-09-19T11:07:06;0.28;;;0.28;;
41799;SDS011;27468;47.460;19.034;2023-09-19T11:09:55;0.63;;;0.50;;
41799;SDS011;27468;47.460;19.034;2023-09-19T11:15:00;0.38;;;0.38;;
41799;SDS011;27468;47.460;19.034;2023-09-19T11:30:37;0.70;;;0.28;;
41799;SDS011;27468;47.460;19.034;2023-09-19T11:33:17;0.20;;;0.20;;
41799;SDS011;27468;47.460;19.034;2023-09-19T11:43:54;0.10;;;0.10;;
41799;SDS011;27468;47.460;19.034;2023-09-19T11:46:26;0.10;;;0.10;;
41799;SDS011;27468;47.460;19.034;2023-09-19T11:48:53;0.17;;;0.17;;
41799;SDS011;27468;47.460;19.034;2023-09-19T11:51:24;0.90;;;0.20;;
41799;SDS011;27468;47.460;19.034;2023-09-19T11:53:53;0.20;;;0.20;;
41799;SDS011;27468;47.460;19.034;2023-09-19T11:56:21;0.00;;;0.00;;
41799;SDS011;27468;47.460;19.034;2023-09-19T11:58:52;0.25;;;0.25;;
41799;SDS011;27468;47.460;19.034;2023-09-19T12:01:23;0.20;;;0.15;;
41799;SDS011;27468;47.460;19.034;2023-09-19T12:03:54;0.28;;;0.25;;
41799;SDS011;27468;47.460;19.034;2023-09-19T12:06:22;0.10;;;0.10;;
41799;SDS011;27468;47.460;19.034;2023-09-19T12:08:49;0.52;;;0.15;;
41799;SDS011;27468;47.460;19.034;2023-09-19T12:11:16;0.30;;;0.30;;
41799;SDS011;27468;47.460;19.034;2023-09-19T12:13:46;0.38;;;0.20;;
41799;SDS011;27468;47.460;19.034;2023-09-19T12:16:17;0.20;;;0.20;;
41799;SDS011;27468;47.460;19.034;2023-09-19T12:18:47;0.20;;;0.20;;
41799;SDS011;27468;47.460;19.034;2023-09-19T12:21:24;1.42;;;0.57;;
41799;SDS011;27468;47.460;19.034;2023-09-19T12:24:04;0.98;;;0.30;;
41799;SDS011;27468;47.460;19.034;2023-09-19T12:26:44;0.70;;;0.20;;
41799;SDS011;27468;47.460;19.034;2023-09-19T12:29:16;0.20;;;0.20;;
41799;SDS011;27468;47.460;19.034;2023-09-19T12:31:50;10.38;;;0.70;;
41799;SDS011;27468;47.460;19.034;2023-09-19T12:34:26;0.32;;;0.32;;
41799;SDS011;27468;47.460;19.034;2023-09-19T12:37:09;0.10;;;0.10;;
41799;SDS011;27468;47.460;19.034;2023-09-19T12:39:51;0.35;;;0.35;;
41799;SDS011;27468;47.460;19.034;2023-09-19T12:42:22;0.10;;;0.10;;
41799;SDS011;27468;47.460;19.034;2023-09-19T12:44:50;0.10;;;0.10;;
41799;SDS011;27468;47.460;19.034;2023-09-19T12:47:21;0.68;;;0.55;;
41799;SDS011;27468;47.460;19.034;2023-09-19T12:50:11;0.22;;;0.22;;
41799;SDS011;27468;47.460;19.034;2023-09-19T12:57:56;0.25;;;0.20;;
41799;SDS011;27468;47.460;19.034;2023-09-19T13:00:21;0.40;;;0.40;;
41799;SDS011;27468;47.460;19.034;2023-09-19T13:03:09;0.30;;;0.13;;
41799;SDS011;27468;47.460;19.034;2023-09-19T13:05:54;0.45;;;0.32;;
41799;SDS011;27468;47.460;19.034;2023-09-19T13:08:27;0.20;;;0.10;;
41799;SDS011;27468;47.460;19.034;2023-09-19T13:13:44;0.10;;;0.10;;
41799;SDS011;27468;47.460;19.034;2023-09-19T13:16:14;0.60;;;0.40;;
41799;SDS011;27468;47.460;19.034;2023-09-19T13:18:45;2.63;;;0.30;;
41799;SDS011;27468;47.460;19.034;2023-09-19T13:21:28;0.60;;;0.25;;
41799;SDS011;27468;47.460;19.034;2023-09-19T13:24:18;0.20;;;0.20;;
41799;SDS011;27468;47.460;19.034;2023-09-19T13:26:44;0.40;;;0.30;;
41799;SDS011;27468;47.460;19.034;2023-09-19T13:29:10;0.30;;;0.20;;
41799;SDS011;27468;47.460;19.034;2023-09-19T13:31:36;0.03;;;0.03;;
41799;SDS011;27468;47.460;19.034;2023-09-19T13:34:06;0.10;;;0.10;;
41799;SDS011;27468;47.460;19.034;2023-09-19T13:36:32;0.10;;;0.10;;
41799;SDS011;27468;47.460;19.034;2023-09-19T13:38:58;0.30;;;0.30;;
41799;SDS011;27468;47.460;19.034;2023-09-19T13:41:25;0.20;;;0.20;;
41799;SDS011;27468;47.460;19.034;2023-09-19T13:43:51;0.28;;;0.28;;
41799;SDS011;27468;47.460;19.034;2023-09-19T13:46:16;0.15;;;0.15;;
41799;SDS011;27468;47.460;19.034;2023-09-19T13:48:43;0.38;;;0.20;;
41799;SDS011;27468;47.460;19.034;2023-09-19T13:51:08;0.28;;;0.28;;
41799;SDS011;27468;47.460;19.034;2023-09-19T13:53:33;2.05;;;0.50;;
41799;SDS011;27468;47.460;19.034;2023-09-19T13:55:59;0.20;;;0.20;;
41799;SDS011;27468;47.460;19.034;2023-09-19T13:58:25;0.35;;;0.13;;
41799;SDS011;27468;47.460;19.034;2023-09-19T14:00:52;1.35;;;0.77;;
41799;SDS011;27468;47.460;19.034;2023-09-19T14:03:20;0.30;;;0.30;;
41799;SDS011;27468;47.460;19.034;2023-09-19T14:05:46;0.20;;;0.20;;
41799;SDS011;27468;47.460;19.034;2023-09-19T14:08:12;0.13;;;0.13;;
41799;SDS011;27468;47.460;19.034;2023-09-19T14:10:38;0.82;;;0.30;;
41799;SDS011;27468;47.460;19.034;2023-09-19T14:13:04;0.32;;;0.32;;
41799;SDS011;27468;47.460;19.034;2023-09-19T14:15:29;0.22;;;0.22;;
41799;SDS011;27468;47.460;19.034;2023-09-19T14:17:55;0.70;;;0.32;;
41799;SDS011;27468;47.460;19.034;2023-09-19T14:20:21;0.20;;;0.20;;
41799;SDS011;27468;47.460;19.034;2023-09-19T14:22:48;0.60;;;0.57;;
41799;SDS011;27468;47.460;19.034;2023-09-19T14:25:13;0.63;;;0.35;;
41799;SDS011;27468;47.460;19.034;2023-09-19T14:27:39;0.40;;;0.40;;
41799;SDS011;27468;47.460;19.034;2023-09-19T14:30:05;0.10;;;0.10;;
41799;SDS011;27468;47.460;19.034;2023-09-19T14:32:31;0.52;;;0.38;;
41799;SDS011;27468;47.460;19.034;2023-09-19T14:34:56;4.03;;;0.85;;
41799;SDS011;27468;47.460;19.034;2023-09-19T14:37:22;0.40;;;0.35;;
41799;SDS011;27468;47.460;19.034;2023-09-19T14:39:47;2.60;;;0.35;;
41799;SDS011;27468;47.460;19.034;2023-09-19T14:42:13;0.30;;;0.30;;
41799;SDS011;27468;47.460;19.034;2023-09-19T14:44:42;0.50;;;0.45;;
41799;SDS011;27468;47.460;19.034;2023-09-19T14:47:08;0.52;;;0.52;;
41799;SDS011;27468;47.460;19.034;2023-09-19T14:49:34;0.10;;;0.10;;
41799;SDS011;27468;47.460;19.034;2023-09-19T14:52:00;0.43;;;0.43;;
41799;SDS011;27468;47.460;19.034;2023-09-19T14:54:29;0.20;;;0.20;;
41799;SDS011;27468;47.460;19.034;2023-09-19T14:56:55;0.28;;;0.28;;
41799;SDS011;27468;47.460;19.034;2023-09-19T14:59:30;0.30;;;0.30;;
41799;SDS011;27468;47.460;19.034;2023-09-19T15:01:56;0.20;;;0.20;;
41799;SDS011;27468;47.460;19.034;2023-09-19T15:04:22;0.60;;;0.60;;
41799;SDS011;27468;47.460;19.034;2023-09-19T15:06:47;0.50;;;0.30;;
41799;SDS011;27468;47.460;19.034;2023-09-19T15:09:13;0.43;;;0.40;;
41799;SDS011;27468;47.460;19.034;2023-09-19T15:11:39;0.20;;;0.20;;
41799;SDS011;27468;47.460;19.034;2023-09-19T15:14:04;0.30;;;0.30;;
41799;SDS011;27468;47.460;19.034;2023-09-19T15:16:29;0.38;;;0.30;;
41799;SDS011;27468;47.460;19.034;2023-09-19T15:18:55;0.47;;;0.47;;
41799;SDS011;27468;47.460;19.034;2023-09-19T15:21:20;1.25;;;0.50;;
41799;SDS011;27468;47.460;19.034;2023-09-19T15:23:46;0.50;;;0.50;;
41799;SDS011;27468;47.460;19.034;2023-09-19T15:26:12;0.00;;;0.00;;
41799;SDS011;27468;47.460;19.034;2023-09-19T15:28:39;0.30;;;0.30;;
41799;SDS011;27468;47.460;19.034;2023-09-19T15:31:05;0.28;;;0.28;;
41799;SDS011;27468;47.460;19.034;2023-09-19T15:33:31;0.32;;;0.22;;
41799;SDS011;27468;47.460;19.034;2023-09-19T15:36:03;0.20;;;0.20;;
41799;SDS011;27468;47.460;19.034;2023-09-19T15:38:29;0.15;;;0.13;;